Time;durP1;ratioP1;P1;durP2;ratioP2;P2;SDS_P1;SDS_P2;PMS_P1;PMS_P2;Temp;Humidity;BMP_temperature;BMP_pressure;BME280_temperature;BME280_humidity;BME280_pressure;Samples;Min_cycle;Max_cycle;Signal;HPM_P1;HPM_P2
2023/10/29 00:00:09;;;;;;;5.65;2.42;;;;;;;;;;6260662;22;20690;-74
2023/10/29 00:02:37;;;;;;;5.50;2.60;;;;;;;;;;6289206;22;19999;-75
2023/10/29 00:05:04;;;;;;;7.18;2.75;;;;;;;;;;6288836;22;20014;-76
2023/10/29 00:07:32;;;;;;;11.00;3.33;;;;;;;;;;6260794;22;20035;-75
2023/10/29 00:10:00;;;;;;;6.70;2.75;;;;;;;;;;6288899;22;19998;-73
2023/10/29 00:12:25;;;;;;;5.82;2.60;;;;;;;;;;6288170;22;20003;-74
2023/10/29 00:14:50;;;;;;;6.53;2.90;;;;;;;;;;6260362;22;20003;-76
2023/10/29 00:17:16;;;;;;;6.53;2.77;;;;;;;;;;6288033;22;19995;-77
2023/10/29 00:19:41;;;;;;;6.15;2.47;;;;;;;;;;6288074;22;20318;-73
2023/10/29 00:22:07;;;;;;;7.70;2.53;;;;;;;;;;6288552;22;19999;-74
2023/10/29 00:24:32;;;;;;;12.18;2.70;;;;;;;;;;6288269;22;20068;-78
2023/10/29 00:26:57;;;;;;;8.90;2.70;;;;;;;;;;6262046;22;19999;-76
2023/10/29 00:29:25;;;;;;;6.97;3.20;;;;;;;;;;6259578;22;20065;-75
2023/10/29 00:31:51;;;;;;;5.57;2.80;;;;;;;;;;6260911;22;20229;-75
2023/10/29 00:34:16;;;;;;;6.88;3.30;;;;;;;;;;6288377;22;20329;-73
2023/10/29 00:36:42;;;;;;;6.57;2.78;;;;;;;;;;6288347;22;19995;-76
2023/10/29 00:39:07;;;;;;;8.10;3.20;;;;;;;;;;6287298;22;20758;-77
2023/10/29 00:41:32;;;;;;;7.07;2.58;;;;;;;;;;6288891;22;20218;-75
2023/10/29 00:44:00;;;;;;;7.70;3.10;;;;;;;;;;6289405;22;20415;-73
2023/10/29 00:46:28;;;;;;;7.00;3.08;;;;;;;;;;6258308;22;20345;-73
2023/10/29 00:48:53;;;;;;;7.93;3.13;;;;;;;;;;6286596;22;20035;-79
2023/10/29 00:51:18;;;;;;;6.70;3.07;;;;;;;;;;6285545;22;20033;-75
2023/10/29 00:53:44;;;;;;;6.70;2.63;;;;;;;;;;6288021;22;20585;-73
2023/10/29 00:56:10;;;;;;;5.63;2.50;;;;;;;;;;6288711;22;19996;-72
2023/10/29 00:58:36;;;;;;;6.95;2.50;;;;;;;;;;6288186;22;20031;-76
2023/10/29 01:01:01;;;;;;;5.97;2.22;;;;;;;;;;6290070;22;20475;-74
2023/10/29 01:03:26;;;;;;;5.35;2.30;;;;;;;;;;6261774;22;20054;-75
2023/10/29 01:05:51;;;;;;;6.17;2.60;;;;;;;;;;6290083;22;20754;-74
2023/10/29 01:08:17;;;;;;;6.55;2.42;;;;;;;;;;6261709;22;20245;-73
2023/10/29 01:10:45;;;;;;;6.82;2.60;;;;;;;;;;6289227;22;20761;-73
2023/10/29 01:13:10;;;;;;;7.22;2.50;;;;;;;;;;6289946;22;20003;-73
2023/10/29 01:15:36;;;;;;;6.18;2.35;;;;;;;;;;6262233;22;20177;-73
2023/10/29 01:18:01;;;;;;;7.07;2.80;;;;;;;;;;6290343;22;20003;-73
2023/10/29 01:20:27;;;;;;;7.00;2.80;;;;;;;;;;6260270;22;20068;-72
2023/10/29 01:22:52;;;;;;;6.53;2.50;;;;;;;;;;6288069;22;19991;-73
2023/10/29 01:25:17;;;;;;;7.88;2.53;;;;;;;;;;6288800;22;20407;-72
2023/10/29 01:27:44;;;;;;;6.75;2.40;;;;;;;;;;6288374;22;20001;-75
2023/10/29 01:30:10;;;;;;;6.30;2.80;;;;;;;;;;6288120;22;20069;-74
2023/10/29 01:32:40;;;;;;;5.93;2.45;;;;;;;;;;6286660;22;20464;-75
2023/10/29 01:35:08;;;;;;;6.90;2.80;;;;;;;;;;6287572;22;19991;-74
2023/10/29 01:37:34;;;;;;;8.45;2.63;;;;;;;;;;6257439;22;20010;-75
2023/10/29 01:39:59;;;;;;;8.70;2.80;;;;;;;;;;6258592;22;20532;-76
2023/10/29 01:42:26;;;;;;;6.63;2.50;;;;;;;;;;6258714;22;20003;-75
2023/10/29 01:44:51;;;;;;;5.43;2.45;;;;;;;;;;6253462;22;20021;-75
2023/10/29 01:47:18;;;;;;;4.87;2.37;;;;;;;;;;6256951;22;20041;-75
2023/10/29 01:49:44;;;;;;;6.05;2.17;;;;;;;;;;6257390;22;20299;-75
2023/10/29 01:52:09;;;;;;;8.70;2.90;;;;;;;;;;6255561;22;20003;-74
2023/10/29 01:54:35;;;;;;;6.57;2.47;;;;;;;;;;6255358;22;20314;-74
2023/10/29 01:57:02;;;;;;;8.10;2.55;;;;;;;;;;6254846;22;20053;-75
2023/10/29 01:59:30;;;;;;;6.20;2.60;;;;;;;;;;6256271;22;20057;-76
2023/10/29 02:01:55;;;;;;;8.40;2.60;;;;;;;;;;6254004;22;20014;-75
2023/10/29 02:04:26;;;;;;;5.82;2.40;;;;;;;;;;6252885;22;20070;-75
2023/10/29 02:06:51;;;;;;;5.60;2.00;;;;;;;;;;6255505;22;20000;-75
2023/10/29 02:09:16;;;;;;;7.40;2.25;;;;;;;;;;6257761;22;19999;-76
2023/10/29 02:11:42;;;;;;;8.30;2.47;;;;;;;;;;6257447;22;20006;-76
2023/10/29 02:14:12;;;;;;;8.27;2.33;;;;;;;;;;6256508;22;21082;-75
2023/10/29 02:16:37;;;;;;;5.03;2.30;;;;;;;;;;6256676;22;20523;-74
2023/10/29 02:19:03;;;;;;;5.68;2.00;;;;;;;;;;6259478;22;20000;-77
2023/10/29 02:21:28;;;;;;;7.20;2.33;;;;;;;;;;6256283;22;19999;-76
2023/10/29 02:23:54;;;;;;;6.10;2.05;;;;;;;;;;6256416;22;19996;-77
2023/10/29 02:26:21;;;;;;;5.85;2.20;;;;;;;;;;6254154;22;20045;-78
2023/10/29 02:28:49;;;;;;;6.32;2.60;;;;;;;;;;6252495;22;20019;-77
2023/10/29 02:31:20;;;;;;;6.32;2.10;;;;;;;;;;6255790;22;20000;-77
2023/10/29 02:33:46;;;;;;;6.05;2.35;;;;;;;;;;6255580;22;20010;-77
2023/10/29 02:36:16;;;;;;;6.05;2.03;;;;;;;;;;6254611;22;20000;-76
2023/10/29 02:38:43;;;;;;;9.95;2.40;;;;;;;;;;6253406;22;20043;-77
2023/10/29 02:41:08;;;;;;;6.00;2.30;;;;;;;;;;6254335;22;19999;-76
2023/10/29 02:43:34;;;;;;;5.75;2.10;;;;;;;;;;6254836;22;20420;-75
2023/10/29 02:46:04;;;;;;;6.47;2.13;;;;;;;;;;6254294;22;20066;-76
2023/10/29 02:48:29;;;;;;;6.60;2.22;;;;;;;;;;6255102;22;20272;-75
2023/10/29 02:50:54;;;;;;;6.47;1.80;;;;;;;;;;6257266;22;20001;-78
2023/10/29 02:53:20;;;;;;;5.77;2.03;;;;;;;;;;6255950;22;20400;-77
2023/10/29 02:55:45;;;;;;;5.88;2.00;;;;;;;;;;6257400;22;20218;-78
2023/10/29 02:58:10;;;;;;;5.82;1.92;;;;;;;;;;6255147;22;20806;-76
2023/10/29 03:00:36;;;;;;;6.63;1.90;;;;;;;;;;6260581;22;20075;-77
2023/10/29 03:03:01;;;;;;;5.40;2.00;;;;;;;;;;6261759;22;19996;-78
2023/10/29 03:05:27;;;;;;;4.85;1.90;;;;;;;;;;6260080;22;20007;-74
2023/10/29 03:07:53;;;;;;;5.07;1.88;;;;;;;;;;6257818;22;20083;-73
2023/10/29 03:10:18;;;;;;;5.72;2.13;;;;;;;;;;6257765;22;20433;-77
2023/10/29 03:12:43;;;;;;;7.38;2.05;;;;;;;;;;6257712;22;20014;-73
2023/10/29 03:15:09;;;;;;;5.10;2.13;;;;;;;;;;6258696;22;19999;-76
2023/10/29 03:17:34;;;;;;;5.95;1.77;;;;;;;;;;6261058;22;21002;-73
2023/10/29 03:19:59;;;;;;;6.40;2.03;;;;;;;;;;6257393;22;20061;-74
2023/10/29 03:22:24;;;;;;;6.13;1.90;;;;;;;;;;6258835;22;20619;-75
2023/10/29 03:24:50;;;;;;;6.83;2.10;;;;;;;;;;6254400;22;20225;-76
2023/10/29 03:27:15;;;;;;;4.70;1.67;;;;;;;;;;6256188;22;20302;-77
2023/10/29 03:29:43;;;;;;;5.73;1.83;;;;;;;;;;6255725;22;20209;-76
2023/10/29 03:32:08;;;;;;;4.53;2.00;;;;;;;;;;6255963;22;20294;-73
2023/10/29 03:34:33;;;;;;;6.32;2.20;;;;;;;;;;6257272;22;20078;-73
2023/10/29 03:37:05;;;;;;;7.60;1.80;;;;;;;;;;6255286;22;20010;-74
2023/10/29 03:39:31;;;;;;;7.03;2.30;;;;;;;;;;6257094;22;20000;-76
2023/10/29 03:41:56;;;;;;;5.57;1.83;;;;;;;;;;6258039;22;20482;-74
2023/10/29 03:44:24;;;;;;;4.90;1.90;;;;;;;;;;6255272;22;20107;-74
2023/10/29 03:46:51;;;;;;;6.32;2.00;;;;;;;;;;6289153;22;20018;-73
2023/10/29 03:49:17;;;;;;;6.72;1.85;;;;;;;;;;6290723;22;20045;-76
2023/10/29 03:51:45;;;;;;;6.80;2.00;;;;;;;;;;6289725;22;20019;-73
2023/10/29 03:54:13;;;;;;;4.85;1.80;;;;;;;;;;6261826;22;20005;-73
2023/10/29 03:56:38;;;;;;;6.00;1.90;;;;;;;;;;6261492;22;20025;-74
2023/10/29 03:59:03;;;;;;;6.05;1.80;;;;;;;;;;6260984;22;20599;-75
2023/10/29 04:01:31;;;;;;;5.22;1.88;;;;;;;;;;6288534;22;19995;-75
2023/10/29 04:03:57;;;;;;;4.78;1.83;;;;;;;;;;6261169;22;19999;-75
2023/10/29 04:06:24;;;;;;;6.47;2.03;;;;;;;;;;6290144;22;20932;-73
2023/10/29 04:08:49;;;;;;;6.07;2.38;;;;;;;;;;6290353;22;20079;-73
2023/10/29 04:11:14;;;;;;;5.97;1.88;;;;;;;;;;6262713;22;20129;-75
2023/10/29 04:13:40;;;;;;;4.32;1.80;;;;;;;;;;6288918;22;20052;-75
2023/10/29 04:16:05;;;;;;;4.30;1.75;;;;;;;;;;6263921;22;20602;-73
2023/10/29 04:18:31;;;;;;;5.82;2.00;;;;;;;;;;6260092;22;20010;-73
2023/10/29 04:20:59;;;;;;;7.57;2.10;;;;;;;;;;6261258;22;20018;-72
2023/10/29 04:23:24;;;;;;;6.00;2.15;;;;;;;;;;6286573;22;19991;-73
2023/10/29 04:25:50;;;;;;;7.10;2.03;;;;;;;;;;6259168;22;20002;-73
2023/10/29 04:28:15;;;;;;;5.45;2.20;;;;;;;;;;6259181;22;21001;-72
2023/10/29 04:30:40;;;;;;;4.93;1.73;;;;;;;;;;6286354;22;20002;-75
2023/10/29 04:33:08;;;;;;;5.70;2.00;;;;;;;;;;6260778;22;20394;-75
2023/10/29 04:35:36;;;;;;;6.50;1.85;;;;;;;;;;6286144;22;20359;-75
2023/10/29 04:38:01;;;;;;;6.55;2.17;;;;;;;;;;6260427;22;20010;-75
2023/10/29 04:40:26;;;;;;;4.70;1.90;;;;;;;;;;6286358;22;19999;-73
2023/10/29 04:42:51;;;;;;;5.00;1.83;;;;;;;;;;6261231;22;19999;-73
2023/10/29 04:45:17;;;;;;;6.13;1.87;;;;;;;;;;6260486;22;21043;-73
2023/10/29 04:47:42;;;;;;;5.70;2.13;;;;;;;;;;6286438;22;20237;-73
2023/10/29 04:50:07;;;;;;;5.63;1.90;;;;;;;;;;6258320;22;20086;-73
2023/10/29 04:52:33;;;;;;;5.85;2.08;;;;;;;;;;6287276;22;20002;-75
2023/10/29 04:55:00;;;;;;;4.93;2.42;;;;;;;;;;6289446;22;19999;-73
2023/10/29 04:57:26;;;;;;;6.85;2.45;;;;;;;;;;6288974;22;20003;-74
2023/10/29 04:59:52;;;;;;;6.22;2.70;;;;;;;;;;6261330;22;20046;-75
2023/10/29 05:02:17;;;;;;;6.00;2.60;;;;;;;;;;6289553;22;20022;-72
2023/10/29 05:04:42;;;;;;;6.13;2.30;;;;;;;;;;6287906;22;19995;-72
2023/10/29 05:07:13;;;;;;;5.50;2.10;;;;;;;;;;6261610;22;19999;-73
2023/10/29 05:09:40;;;;;;;5.18;2.20;;;;;;;;;;6260348;22;20256;-73
2023/10/29 05:12:07;;;;;;;6.30;2.15;;;;;;;;;;6260324;22;20133;-72
2023/10/29 05:14:32;;;;;;;5.63;2.22;;;;;;;;;;6261951;22;19999;-72
2023/10/29 05:16:58;;;;;;;5.20;1.93;;;;;;;;;;6260421;22;20079;-72
2023/10/29 05:19:25;;;;;;;4.90;2.10;;;;;;;;;;6259110;22;20238;-73
2023/10/29 05:21:51;;;;;;;5.72;2.22;;;;;;;;;;6289196;22;20050;-74
2023/10/29 05:24:16;;;;;;;8.77;2.53;;;;;;;;;;6287931;22;20627;-73
2023/10/29 05:26:42;;;;;;;6.85;2.58;;;;;;;;;;6261641;22;20328;-72
2023/10/29 05:29:07;;;;;;;5.65;2.30;;;;;;;;;;6287250;22;20517;-73
2023/10/29 05:31:34;;;;;;;7.60;2.42;;;;;;;;;;6289160;22;20090;-73
2023/10/29 05:34:01;;;;;;;4.80;2.13;;;;;;;;;;6261206;22;20785;-72
2023/10/29 05:36:26;;;;;;;7.40;2.42;;;;;;;;;;6261747;22;20030;-73
2023/10/29 05:38:51;;;;;;;6.22;2.40;;;;;;;;;;6259958;22;20424;-73
2023/10/29 05:41:19;;;;;;;4.67;1.90;;;;;;;;;;6288143;22;19995;-72
2023/10/29 05:43:44;;;;;;;5.80;2.20;;;;;;;;;;6289367;22;20824;-73
2023/10/29 05:46:13;;;;;;;7.37;2.30;;;;;;;;;;6260554;22;20122;-73
2023/10/29 05:48:40;;;;;;;4.93;2.03;;;;;;;;;;6261521;22;20313;-72
2023/10/29 05:51:06;;;;;;;5.63;2.30;;;;;;;;;;6261815;22;20030;-72
2023/10/29 05:53:31;;;;;;;7.93;2.35;;;;;;;;;;6261822;22;20432;-72
2023/10/29 05:55:56;;;;;;;6.43;2.35;;;;;;;;;;6261301;22;20010;-73
2023/10/29 05:58:24;;;;;;;6.25;2.58;;;;;;;;;;6260022;22;20910;-71
2023/10/29 06:00:50;;;;;;;4.80;2.45;;;;;;;;;;6262483;22;20113;-72
2023/10/29 06:03:15;;;;;;;4.70;2.25;;;;;;;;;;6259814;22;20099;-72
2023/10/29 06:05:40;;;;;;;7.72;2.40;;;;;;;;;;6262262;22;20141;-72
2023/10/29 06:08:06;;;;;;;6.57;2.60;;;;;;;;;;6260752;22;20385;-72
2023/10/29 06:10:31;;;;;;;8.68;2.85;;;;;;;;;;6289250;22;20225;-71
2023/10/29 06:12:57;;;;;;;8.13;2.70;;;;;;;;;;6261778;22;19999;-72
2023/10/29 06:15:23;;;;;;;7.28;3.05;;;;;;;;;;6289361;22;20616;-72
2023/10/29 06:17:50;;;;;;;6.37;2.77;;;;;;;;;;6288241;22;20424;-72
2023/10/29 06:20:20;;;;;;;6.32;2.80;;;;;;;;;;6282144;22;20210;-73
2023/10/29 06:22:47;;;;;;;8.30;2.72;;;;;;;;;;6260633;22;20014;-72
2023/10/29 06:25:12;;;;;;;8.65;2.85;;;;;;;;;;6287858;22;20030;-72
2023/10/29 06:27:37;;;;;;;6.18;2.97;;;;;;;;;;6262387;22;20026;-72
2023/10/29 06:30:04;;;;;;;6.45;2.40;;;;;;;;;;6288873;22;20007;-72
2023/10/29 06:32:29;;;;;;;6.30;2.70;;;;;;;;;;6285332;22;20685;-71
2023/10/29 06:34:54;;;;;;;6.67;2.63;;;;;;;;;;6260754;22;20105;-71
2023/10/29 06:37:19;;;;;;;6.37;2.90;;;;;;;;;;6291143;22;20931;-72
2023/10/29 06:39:45;;;;;;;8.03;2.63;;;;;;;;;;6263927;22;20272;-73
2023/10/29 06:42:10;;;;;;;5.28;2.03;;;;;;;;;;6261638;22;20226;-72
2023/10/29 06:44:35;;;;;;;5.82;2.20;;;;;;;;;;6263548;22;19991;-72
2023/10/29 06:47:01;;;;;;;6.00;2.10;;;;;;;;;;6290063;22;20017;-72
2023/10/29 06:49:26;;;;;;;5.88;2.50;;;;;;;;;;6290455;22;20010;-72
2023/10/29 06:51:56;;;;;;;7.78;2.35;;;;;;;;;;6290664;22;20650;-71
2023/10/29 06:54:21;;;;;;;6.70;3.42;;;;;;;;;;6290593;22;19999;-73
2023/10/29 06:56:47;;;;;;;6.87;2.63;;;;;;;;;;6290283;22;19995;-72
2023/10/29 06:59:12;;;;;;;7.18;3.20;;;;;;;;;;6262417;22;20222;-73
2023/10/29 07:01:37;;;;;;;5.57;2.67;;;;;;;;;;6287362;22;20087;-72
2023/10/29 07:04:06;;;;;;;6.00;2.33;;;;;;;;;;6289275;22;20507;-71
2023/10/29 07:06:31;;;;;;;6.73;2.60;;;;;;;;;;6261896;22;19999;-71
2023/10/29 07:08:57;;;;;;;7.35;2.97;;;;;;;;;;6290163;22;20007;-72
2023/10/29 07:11:23;;;;;;;5.93;2.60;;;;;;;;;;6262031;22;20035;-71
2023/10/29 07:13:48;;;;;;;7.78;2.80;;;;;;;;;;6261622;22;20026;-72
2023/10/29 07:16:16;;;;;;;6.20;3.05;;;;;;;;;;6289750;22;20034;-71
2023/10/29 07:18:42;;;;;;;9.10;3.40;;;;;;;;;;6290020;22;20023;-72
2023/10/29 07:21:09;;;;;;;5.95;2.75;;;;;;;;;;6262693;22;20030;-72
2023/10/29 07:23:37;;;;;;;6.88;3.10;;;;;;;;;;6289178;22;20000;-72
2023/10/29 07:26:03;;;;;;;7.75;3.00;;;;;;;;;;6289176;22;20030;-72
2023/10/29 07:28:28;;;;;;;8.13;3.60;;;;;;;;;;6284690;22;20227;-72
2023/10/29 07:30:56;;;;;;;8.00;3.17;;;;;;;;;;6259420;22;20894;-72
2023/10/29 07:33:26;;;;;;;7.60;3.03;;;;;;;;;;6262082;22;19999;-72
2023/10/29 07:35:51;;;;;;;5.97;2.75;;;;;;;;;;6288442;22;19995;-72
2023/10/29 07:38:19;;;;;;;5.55;2.80;;;;;;;;;;6259437;22;20022;-71
2023/10/29 07:40:45;;;;;;;5.35;2.70;;;;;;;;;;6283051;22;20392;-72
2023/10/29 07:43:10;;;;;;;7.10;2.70;;;;;;;;;;6288888;22;19999;-73
2023/10/29 07:45:37;;;;;;;7.55;2.53;;;;;;;;;;6288447;22;20015;-72
2023/10/29 07:48:06;;;;;;;5.45;2.20;;;;;;;;;;6289227;22;19995;-72
2023/10/29 07:50:31;;;;;;;6.88;2.78;;;;;;;;;;6260073;22;20505;-71
2023/10/29 07:52:56;;;;;;;6.18;2.55;;;;;;;;;;6261988;22;20098;-73
2023/10/29 07:55:22;;;;;;;6.10;2.28;;;;;;;;;;6286451;22;20077;-73
2023/10/29 07:57:47;;;;;;;5.60;2.57;;;;;;;;;;6260920;22;20003;-73
2023/10/29 08:00:15;;;;;;;7.50;2.25;;;;;;;;;;6289540;22;20267;-72
2023/10/29 08:02:41;;;;;;;5.47;2.58;;;;;;;;;;6260218;22;20003;-72
2023/10/29 08:05:10;;;;;;;6.68;2.70;;;;;;;;;;6286420;22;20618;-72
2023/10/29 08:07:36;;;;;;;6.43;2.50;;;;;;;;;;6257925;22;20636;-73
2023/10/29 08:10:01;;;;;;;5.00;2.00;;;;;;;;;;6290578;22;20003;-72
2023/10/29 08:12:29;;;;;;;6.82;2.22;;;;;;;;;;6288516;22;20018;-73
2023/10/29 08:14:57;;;;;;;6.13;2.85;;;;;;;;;;6288962;22;19998;-72
2023/10/29 08:17:22;;;;;;;7.55;2.35;;;;;;;;;;6290128;22;19995;-72
2023/10/29 08:19:48;;;;;;;5.83;2.50;;;;;;;;;;6288474;22;20007;-72
2023/10/29 08:22:13;;;;;;;7.00;3.17;;;;;;;;;;6262470;22;20232;-73
2023/10/29 08:24:39;;;;;;;7.10;3.35;;;;;;;;;;6286796;22;20395;-72
2023/10/29 08:27:06;;;;;;;6.88;3.47;;;;;;;;;;6261633;22;20029;-73
2023/10/29 08:29:38;;;;;;;7.15;3.22;;;;;;;;;;6287345;22;20027;-74
2023/10/29 08:32:06;;;;;;;8.00;3.17;;;;;;;;;;6261311;22;20158;-74
2023/10/29 08:34:32;;;;;;;6.50;2.90;;;;;;;;;;6260145;22;20053;-73
2023/10/29 08:36:57;;;;;;;5.57;2.50;;;;;;;;;;6288406;22;20030;-75
2023/10/29 08:39:23;;;;;;;7.07;3.10;;;;;;;;;;6280933;22;20214;-75
2023/10/29 08:41:51;;;;;;;6.55;2.90;;;;;;;;;;6283494;22;19995;-76
2023/10/29 08:44:19;;;;;;;6.80;2.60;;;;;;;;;;6282923;22;20030;-75
2023/10/29 08:46:45;;;;;;;7.18;2.95;;;;;;;;;;6283049;22;20090;-74
2023/10/29 08:49:11;;;;;;;7.25;2.65;;;;;;;;;;6254576;22;20086;-75
2023/10/29 08:51:36;;;;;;;6.53;2.80;;;;;;;;;;6256026;22;20083;-77
2023/10/29 08:54:02;;;;;;;7.07;2.97;;;;;;;;;;6258695;22;20554;-73
2023/10/29 08:56:29;;;;;;;8.73;3.00;;;;;;;;;;6256612;22;20007;-74
2023/10/29 08:58:54;;;;;;;7.43;3.63;;;;;;;;;;6284951;22;20053;-73
2023/10/29 09:01:19;;;;;;;8.02;3.20;;;;;;;;;;6287062;22;20002;-73
2023/10/29 09:03:47;;;;;;;6.43;2.90;;;;;;;;;;6282887;22;20500;-72
2023/10/29 09:06:12;;;;;;;5.32;2.88;;;;;;;;;;6253731;22;20324;-72
2023/10/29 09:08:38;;;;;;;6.75;3.08;;;;;;;;;;6284723;22;20627;-72
2023/10/29 09:11:04;;;;;;;5.90;2.92;;;;;;;;;;6286638;22;20526;-73
2023/10/29 09:13:30;;;;;;;6.03;2.50;;;;;;;;;;6284141;22;20094;-75
2023/10/29 09:15:55;;;;;;;6.18;2.70;;;;;;;;;;6283796;22;20005;-73
2023/10/29 09:18:22;;;;;;;6.50;3.25;;;;;;;;;;6283897;22;20013;-74
2023/10/29 09:20:48;;;;;;;6.55;2.75;;;;;;;;;;6285711;22;19999;-74
2023/10/29 09:23:17;;;;;;;7.40;2.90;;;;;;;;;;6282765;22;21174;-76
2023/10/29 09:25:43;;;;;;;7.93;3.53;;;;;;;;;;6283536;22;19995;-76
2023/10/29 09:28:11;;;;;;;7.95;3.25;;;;;;;;;;6284164;22;20078;-76
2023/10/29 09:30:36;;;;;;;8.65;3.45;;;;;;;;;;6254315;22;20549;-71
2023/10/29 09:33:01;;;;;;;8.48;3.40;;;;;;;;;;6287478;22;20070;-71
2023/10/29 09:35:27;;;;;;;8.00;3.33;;;;;;;;;;6279688;22;19999;-74
2023/10/29 09:37:54;;;;;;;9.02;3.10;;;;;;;;;;6285162;22;20080;-75
2023/10/29 09:40:20;;;;;;;9.07;3.25;;;;;;;;;;6257865;22;19999;-75
2023/10/29 09:42:51;;;;;;;7.97;3.38;;;;;;;;;;6258784;22;20056;-75
2023/10/29 09:45:18;;;;;;;5.88;2.13;;;;;;;;;;6256293;22;20039;-76
2023/10/29 09:47:46;;;;;;;4.70;2.20;;;;;;;;;;6256912;22;20022;-76
2023/10/29 09:50:11;;;;;;;6.63;2.88;;;;;;;;;;6255735;22;20021;-75
2023/10/29 09:52:36;;;;;;;7.25;2.85;;;;;;;;;;6256219;22;20003;-76
2023/10/29 09:55:02;;;;;;;10.27;4.65;;;;;;;;;;6285334;22;20010;-77
2023/10/29 09:57:29;;;;;;;17.15;12.85;;;;;;;;;;6283461;22;20044;-76
2023/10/29 09:59:55;;;;;;;13.00;8.60;;;;;;;;;;6283397;22;20080;-77
2023/10/29 10:02:22;;;;;;;17.67;13.20;;;;;;;;;;6286468;22;20031;-77
2023/10/29 10:04:47;;;;;;;24.70;18.23;;;;;;;;;;6258048;22;19991;-77
2023/10/29 10:07:13;;;;;;;14.90;10.00;;;;;;;;;;6285698;22;20060;-77
2023/10/29 10:09:52;;;;;;;8.60;3.10;;;;;;;;;;6256645;22;20068;-76
2023/10/29 10:12:20;;;;;;;7.00;3.28;;;;;;;;;;6260654;22;20417;-75
2023/10/29 10:14:46;;;;;;;8.13;3.47;;;;;;;;;;6285486;22;19995;-74
2023/10/29 10:17:12;;;;;;;9.68;2.97;;;;;;;;;;6289278;22;20053;-73
2023/10/29 10:19:38;;;;;;;6.70;3.42;;;;;;;;;;6289285;22;20390;-73
2023/10/29 10:22:06;;;;;;;9.32;3.03;;;;;;;;;;6286087;22;20000;-77
2023/10/29 10:24:43;;;;;;;6.70;3.08;;;;;;;;;;6261628;22;20086;-75
2023/10/29 10:27:09;;;;;;;7.35;2.30;;;;;;;;;;6258824;22;20641;-73
2023/10/29 10:29:34;;;;;;;7.95;2.40;;;;;;;;;;6260545;22;20014;-75
2023/10/29 10:32:03;;;;;;;14.43;8.18;;;;;;;;;;6260171;22;20003;-72
2023/10/29 10:34:33;;;;;;;8.18;4.20;;;;;;;;;;6288742;22;20673;-73
2023/10/29 10:37:04;;;;;;;12.25;5.47;;;;;;;;;;6288519;22;19995;-74
2023/10/29 10:39:32;;;;;;;6.32;2.58;;;;;;;;;;6287482;22;20677;-74
2023/10/29 10:42:00;;;;;;;9.20;4.28;;;;;;;;;;6288736;22;20650;-75
2023/10/29 10:44:26;;;;;;;6.68;3.60;;;;;;;;;;6258491;22;19999;-74
2023/10/29 10:46:52;;;;;;;7.05;3.72;;;;;;;;;;6286442;22;20011;-72
2023/10/29 10:49:21;;;;;;;11.65;3.20;;;;;;;;;;6287359;22;20008;-75
2023/10/29 10:51:54;;;;;;;8.88;2.83;;;;;;;;;;6259915;22;20014;-77
2023/10/29 10:54:19;;;;;;;8.93;3.03;;;;;;;;;;6289474;22;20003;-76
2023/10/29 10:56:45;;;;;;;5.47;2.70;;;;;;;;;;6287428;22;20003;-76
2023/10/29 10:59:13;;;;;;;7.00;3.30;;;;;;;;;;6288983;22;19999;-76
2023/10/29 11:01:39;;;;;;;9.32;4.05;;;;;;;;;;6286490;22;19995;-75
2023/10/29 11:04:08;;;;;;;6.47;3.22;;;;;;;;;;6260199;22;20010;-76
2023/10/29 11:06:35;;;;;;;6.47;3.30;;;;;;;;;;6258629;22;20010;-75
2023/10/29 11:09:00;;;;;;;8.85;3.20;;;;;;;;;;6286613;22;20027;-74
2023/10/29 11:11:31;;;;;;;5.72;2.90;;;;;;;;;;6288741;22;20038;-74
2023/10/29 11:14:09;;;;;;;8.10;3.00;;;;;;;;;;6285032;22;20069;-74
2023/10/29 11:16:44;;;;;;;7.75;3.92;;;;;;;;;;6286691;22;20094;-73
2023/10/29 11:19:28;;;;;;;8.45;3.30;;;;;;;;;;6258146;22;20677;-73
2023/10/29 11:22:11;;;;;;;7.03;3.38;;;;;;;;;;6260883;22;20025;-73
2023/10/29 11:24:38;;;;;;;7.28;2.92;;;;;;;;;;6287190;22;20055;-74
2023/10/29 11:27:23;;;;;;;6.97;3.53;;;;;;;;;;6261353;22;20331;-73
2023/10/29 11:29:48;;;;;;;6.07;2.90;;;;;;;;;;6263374;22;20014;-73
2023/10/29 11:32:26;;;;;;;6.75;3.20;;;;;;;;;;6289886;22;19995;-72
2023/10/29 11:35:10;;;;;;;10.45;6.15;;;;;;;;;;6289318;22;19999;-73
2023/10/29 11:37:39;;;;;;;8.77;4.93;;;;;;;;;;6291087;22;20002;-73
2023/10/29 11:40:22;;;;;;;9.30;4.13;;;;;;;;;;6259717;22;20025;-73
2023/10/29 11:42:48;;;;;;;9.52;3.70;;;;;;;;;;6286436;22;20068;-74
2023/10/29 11:45:39;;;;;;;9.77;3.30;;;;;;;;;;6258708;22;20015;-73
2023/10/29 11:48:17;;;;;;;7.05;2.60;;;;;;;;;;6281017;22;19999;-74
2023/10/29 11:51:02;;;;;;;5.90;2.70;;;;;;;;;;6291240;22;20070;-74
2023/10/29 11:53:30;;;;;;;6.55;2.80;;;;;;;;;;6261209;22;20471;-74
2023/10/29 11:55:59;;;;;;;6.40;2.75;;;;;;;;;;6290800;22;20007;-74
2023/10/29 11:58:26;;;;;;;7.15;2.80;;;;;;;;;;6288628;22;20052;-73
2023/10/29 12:00:52;;;;;;;6.30;2.45;;;;;;;;;;6289554;22;19998;-76
2023/10/29 12:03:19;;;;;;;5.93;2.40;;;;;;;;;;6261540;22;20690;-73
2023/10/29 12:05:50;;;;;;;6.03;1.98;;;;;;;;;;6288526;22;20010;-75
2023/10/29 12:08:16;;;;;;;6.57;2.20;;;;;;;;;;6258473;22;20177;-76
2023/10/29 12:10:48;;;;;;;7.03;2.50;;;;;;;;;;6255542;22;20115;-75
2023/10/29 12:13:16;;;;;;;7.60;2.47;;;;;;;;;;6284337;22;20402;-76
2023/10/29 12:15:44;;;;;;;5.70;2.13;;;;;;;;;;6256312;22;20312;-77
2023/10/29 12:18:17;;;;;;;5.82;1.95;;;;;;;;;;6256159;22;19999;-76
2023/10/29 12:20:45;;;;;;;4.35;1.83;;;;;;;;;;6284910;22;20006;-72
2023/10/29 12:23:11;;;;;;;6.32;2.30;;;;;;;;;;6283580;22;19995;-75
2023/10/29 12:25:36;;;;;;;6.68;2.33;;;;;;;;;;6284798;22;20671;-73
2023/10/29 12:28:01;;;;;;;6.40;2.05;;;;;;;;;;6256460;22;20002;-76
2023/10/29 12:30:36;;;;;;;6.25;2.10;;;;;;;;;;6287232;22;19999;-76
2023/10/29 12:33:16;;;;;;;5.70;2.47;;;;;;;;;;6256202;22;20088;-73
2023/10/29 12:35:42;;;;;;;7.32;2.80;;;;;;;;;;6257346;22;20098;-73
2023/10/29 12:38:09;;;;;;;8.07;2.90;;;;;;;;;;6259873;22;20086;-72
2023/10/29 12:40:37;;;;;;;7.15;3.10;;;;;;;;;;6286729;22;19996;-71
2023/10/29 12:43:04;;;;;;;6.95;2.70;;;;;;;;;;6289297;22;20126;-72
2023/10/29 12:45:31;;;;;;;6.00;2.40;;;;;;;;;;6284334;22;20012;-72
2023/10/29 12:48:12;;;;;;;5.82;2.53;;;;;;;;;;6260490;22;20053;-72
2023/10/29 12:50:51;;;;;;;5.95;2.38;;;;;;;;;;6257736;22;20007;-71
2023/10/29 12:53:25;;;;;;;5.90;2.15;;;;;;;;;;6257919;22;20847;-71
2023/10/29 12:55:51;;;;;;;6.00;2.45;;;;;;;;;;6261387;22;20260;-71
2023/10/29 12:58:21;;;;;;;4.63;2.28;;;;;;;;;;6283461;22;20553;-70
2023/10/29 13:00:49;;;;;;;8.43;3.10;;;;;;;;;;6260179;22;20003;-71
2023/10/29 13:03:14;;;;;;;5.95;2.53;;;;;;;;;;6283612;22;20323;-73
2023/10/29 13:05:39;;;;;;;6.30;2.40;;;;;;;;;;6288786;22;20712;-71
2023/10/29 13:08:04;;;;;;;6.25;2.47;;;;;;;;;;6284211;22;20002;-71
2023/10/29 13:10:30;;;;;;;5.70;2.17;;;;;;;;;;6287678;22;20133;-70
2023/10/29 13:12:55;;;;;;;6.90;2.55;;;;;;;;;;6258598;22;20501;-71
2023/10/29 13:15:21;;;;;;;6.60;1.90;;;;;;;;;;6260606;22;20009;-71
2023/10/29 13:17:46;;;;;;;4.65;1.98;;;;;;;;;;6259292;22;20053;-71
2023/10/29 13:20:14;;;;;;;4.80;2.30;;;;;;;;;;6258690;22;20399;-70
2023/10/29 13:22:40;;;;;;;7.10;2.45;;;;;;;;;;6288891;22;20214;-71
2023/10/29 13:25:06;;;;;;;6.10;2.75;;;;;;;;;;6285364;22;20003;-70
2023/10/29 13:27:31;;;;;;;6.80;3.78;;;;;;;;;;6288495;22;19999;-72
2023/10/29 13:29:58;;;;;;;6.70;2.47;;;;;;;;;;6283816;22;20057;-71
2023/10/29 13:32:23;;;;;;;5.88;2.53;;;;;;;;;;6287984;22;20002;-70
2023/10/29 13:34:51;;;;;;;5.63;2.33;;;;;;;;;;6285570;22;19995;-71
2023/10/29 13:37:18;;;;;;;5.13;2.38;;;;;;;;;;6286626;22;20000;-71
2023/10/29 13:39:43;;;;;;;6.15;2.08;;;;;;;;;;6287007;22;20543;-70
2023/10/29 13:42:08;;;;;;;5.93;3.20;;;;;;;;;;6286182;22;20006;-71
2023/10/29 13:44:37;;;;;;;6.22;3.40;;;;;;;;;;6285995;22;19999;-69
2023/10/29 13:47:02;;;;;;;6.30;2.63;;;;;;;;;;6257253;22;19995;-70
2023/10/29 13:49:27;;;;;;;6.75;3.08;;;;;;;;;;6287633;22;20010;-71
2023/10/29 13:51:55;;;;;;;8.50;2.88;;;;;;;;;;6259858;22;20106;-71
2023/10/29 13:54:23;;;;;;;5.50;2.70;;;;;;;;;;6287225;22;20004;-71
2023/10/29 13:56:50;;;;;;;6.20;2.80;;;;;;;;;;6258200;22;20412;-71
2023/10/29 13:59:16;;;;;;;7.28;2.75;;;;;;;;;;6257616;22;20359;-70
2023/10/29 14:01:41;;;;;;;5.80;2.60;;;;;;;;;;6259627;22;20420;-70
2023/10/29 14:04:06;;;;;;;6.63;2.58;;;;;;;;;;6259087;22;20282;-70
2023/10/29 14:06:32;;;;;;;5.57;3.03;;;;;;;;;;6285911;22;19999;-71
2023/10/29 14:08:59;;;;;;;6.40;3.20;;;;;;;;;;6287322;22;20729;-71
2023/10/29 14:11:25;;;;;;;6.70;3.20;;;;;;;;;;6257064;22;20608;-70
2023/10/29 14:13:58;;;;;;;6.15;2.83;;;;;;;;;;6260154;22;20003;-71
2023/10/29 14:16:41;;;;;;;5.78;2.78;;;;;;;;;;6255348;22;20007;-71
2023/10/29 14:19:07;;;;;;;6.28;3.05;;;;;;;;;;6287610;22;20003;-70
2023/10/29 14:21:35;;;;;;;7.22;2.90;;;;;;;;;;6256322;22;20407;-71
2023/10/29 14:24:06;;;;;;;6.93;2.72;;;;;;;;;;6287951;22;20056;-71
2023/10/29 14:26:32;;;;;;;6.57;2.53;;;;;;;;;;6257516;22;20003;-70
2023/10/29 14:28:57;;;;;;;5.25;2.60;;;;;;;;;;6257801;22;20638;-71
2023/10/29 14:31:23;;;;;;;6.38;3.17;;;;;;;;;;6258486;22;19995;-70
2023/10/29 14:33:50;;;;;;;7.53;2.50;;;;;;;;;;6257843;22;20034;-71
2023/10/29 14:36:16;;;;;;;5.07;2.40;;;;;;;;;;6260601;22;20313;-71
2023/10/29 14:38:41;;;;;;;6.18;2.38;;;;;;;;;;6254747;22;20105;-71
2023/10/29 14:41:06;;;;;;;6.93;3.00;;;;;;;;;;6288253;22;20052;-71